Time;durP1;ratioP1;P1;durP2;ratioP2;P2;SDS_P1;SDS_P2;PMS_P1;PMS_P2;Temp;Humidity;BMP_temperature;BMP_pressure;BME280_temperature;BME280_humidity;BME280_pressure;Samples;Min_cycle;Max_cycle;Signal;HPM_P1;HPM_P2
2021/04/11 00:00:36;;;;;;;12.60;7.10;;;8.50;99.90;;;;;;5114672;28;20242;-66
2021/04/11 00:03:04;;;;;;;11.48;5.90;;;8.50;99.90;;;;;;5114447;28;20200;-67
2021/04/11 00:05:32;;;;;;;11.73;5.57;;;8.50;99.90;;;;;;5114827;28;20243;-66
2021/04/11 00:07:59;;;;;;;9.07;5.75;;;8.50;99.90;;;;;;5114317;28;20203;-66
2021/04/11 00:10:29;;;;;;;10.32;5.57;;;8.40;99.90;;;;;;5114684;28;20225;-66
2021/04/11 00:12:54;;;;;;;6.65;5.00;;;8.40;99.90;;;;;;5095987;28;20252;-66
2021/04/11 00:15:20;;;;;;;7.37;4.60;;;8.30;99.90;;;;;;5114604;28;20564;-66
2021/04/11 00:17:46;;;;;;;10.60;5.23;;;8.20;99.90;;;;;;5114180;28;20851;-67
2021/04/11 00:20:13;;;;;;;7.63;6.20;;;8.20;99.90;;;;;;5114380;28;20217;-66
2021/04/11 00:22:40;;;;;;;6.90;4.85;;;8.20;99.90;;;;;;5114029;28;20242;-67
2021/04/11 00:25:09;;;;;;;13.45;6.07;;;8.20;99.90;;;;;;5095946;28;20178;-66
2021/04/11 00:27:35;;;;;;;7.35;5.07;;;8.10;99.90;;;;;;5095061;28;20190;-66
2021/04/11 00:30:01;;;;;;;10.43;5.93;;;8.10;99.90;;;;;;5114413;28;20531;-66
2021/04/11 00:32:27;;;;;;;10.82;5.93;;;8.00;99.90;;;;;;5113969;28;20556;-66
2021/04/11 00:34:52;;;;;;;9.87;4.97;;;7.80;99.90;;;;;;5114230;28;20171;-66
2021/04/11 00:37:18;;;;;;;21.03;9.30;;;7.90;99.90;;;;;;5112815;28;20190;-67
2021/04/11 00:39:44;;;;;;;11.03;6.97;;;7.90;99.90;;;;;;5113985;28;20234;-66
2021/04/11 00:42:18;;;;;;;12.47;6.27;;;8.20;99.90;;;;;;5095804;28;20660;-68
2021/04/11 00:44:44;;;;;;;12.32;7.97;;;8.30;99.90;;;;;;5114126;28;20278;-66
2021/04/11 00:47:10;;;;;;;13.15;7.25;;;8.20;99.90;;;;;;5114119;28;20187;-71
2021/04/11 00:49:40;;;;;;;6.23;4.67;;;8.00;99.90;;;;;;5113791;28;20278;-66
2021/04/11 00:52:08;;;;;;;8.32;5.00;;;7.90;99.90;;;;;;5113974;28;20400;-67
2021/04/11 00:54:35;;;;;;;9.43;6.90;;;7.70;99.90;;;;;;5114046;28;20312;-66
2021/04/11 00:57:01;;;;;;;11.80;6.30;;;7.70;99.90;;;;;;5113888;28;20233;-67
2021/04/11 00:59:27;;;;;;;9.23;6.47;;;7.80;99.90;;;;;;5113717;28;20216;-65
2021/04/11 01:01:53;;;;;;;7.90;7.10;;;7.50;99.90;;;;;;5113822;28;20404;-67
2021/04/11 01:04:19;;;;;;;9.50;5.27;;;7.80;99.90;;;;;;5113730;28;20637;-67
2021/04/11 01:06:57;;;;;;;12.02;6.30;;;7.60;99.90;;;;;;5113736;28;20183;-67
2021/04/11 01:09:39;;;;;;;6.72;5.20;;;7.80;99.90;;;;;;5113782;28;20541;-66
2021/04/11 01:12:09;;;;;;;6.20;4.20;;;7.70;99.90;;;;;;5113788;28;20172;-67
2021/04/11 01:14:36;;;;;;;11.52;6.75;;;7.80;99.90;;;;;;5113938;28;20196;-67
2021/04/11 01:17:05;;;;;;;8.90;5.40;;;7.60;99.90;;;;;;5113708;28;20209;-66
2021/04/11 01:19:34;;;;;;;5.22;4.53;;;7.60;99.90;;;;;;5113812;28;20298;-65
2021/04/11 01:22:00;;;;;;;12.13;6.47;;;7.60;99.90;;;;;;5113643;28;20539;-68
2021/04/11 01:24:34;;;;;;;7.20;5.10;;;7.50;99.90;;;;;;5113657;28;20192;-66
2021/04/11 01:27:00;;;;;;;8.07;6.60;;;7.40;99.90;;;;;;5095388;28;20420;-66
2021/04/11 01:29:27;;;;;;;10.10;6.05;;;7.40;99.90;;;;;;5095378;28;20204;-66
2021/04/11 01:31:52;;;;;;;9.85;4.75;;;7.40;99.90;;;;;;5095256;28;20172;-66
2021/04/11 01:34:18;;;;;;;9.43;4.97;;;7.20;99.90;;;;;;5113515;28;20249;-67
2021/04/11 01:36:48;;;;;;;8.50;5.20;;;7.20;99.90;;;;;;5095193;28;20186;-67
2021/04/11 01:39:20;;;;;;;5.32;4.47;;;7.10;99.90;;;;;;5115411;28;20527;-66
2021/04/11 01:41:48;;;;;;;10.82;4.65;;;7.20;99.90;;;;;;5098756;28;20179;-67
2021/04/11 01:44:20;;;;;;;8.95;4.88;;;7.10;99.90;;;;;;5117075;28;20656;-66
2021/04/11 01:46:48;;;;;;;7.35;5.10;;;7.00;99.90;;;;;;5116921;28;20176;-66
2021/04/11 01:49:14;;;;;;;7.10;4.80;;;7.20;99.90;;;;;;5116984;28;20191;-66
2021/04/11 01:51:46;;;;;;;9.00;5.05;;;7.10;99.90;;;;;;5116973;28;20263;-66
2021/04/11 01:54:20;;;;;;;6.97;5.32;;;7.00;99.90;;;;;;5116797;28;20245;-66
2021/04/11 01:56:48;;;;;;;10.82;5.10;;;7.10;99.90;;;;;;5116788;28;20214;-67
2021/04/11 01:59:19;;;;;;;4.93;4.22;;;7.00;99.90;;;;;;5116681;28;20223;-66
2021/04/11 02:01:48;;;;;;;12.48;5.07;;;7.00;99.90;;;;;;5116773;28;20176;-66
2021/04/11 02:04:14;;;;;;;8.05;5.80;;;7.00;99.90;;;;;;5116825;28;20278;-67
2021/04/11 02:06:52;;;;;;;5.23;4.70;;;7.00;99.90;;;;;;5098342;28;20264;-66
2021/04/11 02:09:23;;;;;;;6.93;4.57;;;7.00;99.90;;;;;;5098142;28;20913;-67
2021/04/11 02:11:49;;;;;;;7.47;4.15;;;7.00;99.90;;;;;;5098290;28;20194;-65
2021/04/11 02:14:16;;;;;;;10.68;7.47;;;7.10;99.90;;;;;;5116492;28;20195;-66
2021/04/11 02:16:43;;;;;;;12.68;6.43;;;7.00;99.90;;;;;;5116433;28;20203;-66
2021/04/11 02:19:13;;;;;;;6.10;4.93;;;6.80;99.90;;;;;;5098003;28;20196;-66
2021/04/11 02:21:40;;;;;;;5.55;4.13;;;6.80;99.90;;;;;;5116433;28;20170;-67
2021/04/11 02:24:08;;;;;;;10.40;5.45;;;6.80;99.90;;;;;;5116211;28;20183;-66
2021/04/11 02:26:35;;;;;;;6.75;5.70;;;6.80;99.90;;;;;;5116284;28;20179;-68
2021/04/11 02:29:22;;;;;;;6.90;5.28;;;6.80;99.90;;;;;;5097728;28;20241;-66
2021/04/11 02:31:48;;;;;;;6.00;4.07;;;6.80;99.90;;;;;;5116217;28;20172;-66
2021/04/11 02:34:24;;;;;;;10.53;4.77;;;6.80;99.90;;;;;;5116143;28;20731;-66
2021/04/11 02:37:01;;;;;;;7.60;4.07;;;6.80;99.90;;;;;;5116062;28;20164;-67
2021/04/11 02:39:32;;;;;;;7.35;5.15;;;6.80;99.90;;;;;;5097747;28;20207;-66
2021/04/11 02:42:03;;;;;;;9.40;5.70;;;6.70;99.90;;;;;;5115930;28;20237;-66
2021/04/11 02:44:34;;;;;;;14.30;5.70;;;6.70;99.90;;;;;;5116116;28;20668;-66
2021/04/11 02:47:00;;;;;;;5.95;4.65;;;6.70;99.90;;;;;;5116084;28;20160;-66
2021/04/11 02:49:26;;;;;;;11.50;4.47;;;6.70;99.90;;;;;;5115632;28;20253;-67
2021/04/11 02:51:54;;;;;;;32.03;14.63;;;6.80;99.90;;;;;;5115182;28;20184;-66
2021/04/11 02:54:22;;;;;;;29.88;14.73;;;6.80;99.90;;;;;;5115800;28;20435;-65
2021/04/11 02:56:48;;;;;;;14.18;9.27;;;6.70;99.90;;;;;;5115635;28;20180;-66
2021/04/11 02:59:15;;;;;;;4.88;4.47;;;6.70;99.90;;;;;;5115542;28;20199;-66
2021/04/11 03:01:44;;;;;;;9.88;5.28;;;6.70;99.90;;;;;;5115526;28;20519;-66
2021/04/11 03:04:15;;;;;;;8.55;6.22;;;6.70;99.90;;;;;;5115492;28;20198;-66
2021/04/11 03:06:46;;;;;;;13.35;8.75;;;6.50;99.90;;;;;;5115537;28;20271;-67
2021/04/11 03:09:19;;;;;;;9.35;5.90;;;6.40;99.90;;;;;;5115455;28;20184;-66
2021/04/11 03:11:49;;;;;;;9.20;6.93;;;6.40;99.90;;;;;;5115441;28;20171;-67
2021/04/11 03:14:19;;;;;;;8.80;5.35;;;6.50;99.90;;;;;;5115272;28;20633;-67
2021/04/11 03:16:45;;;;;;;9.07;5.28;;;6.50;99.90;;;;;;5096971;28;20192;-66
2021/04/11 03:19:14;;;;;;;9.00;4.78;;;6.50;99.90;;;;;;5115136;28;20187;-66
2021/04/11 03:21:43;;;;;;;8.75;5.32;;;6.50;99.90;;;;;;5096907;28;20551;-66
2021/04/11 03:24:09;;;;;;;16.30;5.38;;;6.50;99.90;;;;;;5115130;28;20270;-66
2021/04/11 03:26:47;;;;;;;7.40;5.70;;;6.50;99.90;;;;;;5115022;28;20180;-67
2021/04/11 03:29:18;;;;;;;8.60;5.00;;;6.50;99.90;;;;;;5096840;28;20193;-66
2021/04/11 03:32:22;;;;;;;8.15;5.45;;;6.50;99.90;;;;;;5113714;28;20171;-66
2021/04/11 03:34:50;;;;;;;5.15;3.75;;;6.30;99.90;;;;;;5052251;28;20292;-66
2021/04/11 03:37:18;;;;;;;8.30;3.88;;;6.20;99.90;;;;;;5102836;28;20191;-67
2021/04/11 03:39:44;;;;;;;5.07;4.55;;;6.20;99.90;;;;;;5114887;28;20761;-66
2021/04/11 03:42:14;;;;;;;9.20;5.60;;;6.20;99.90;;;;;;5114841;28;20203;-66
2021/04/11 03:44:40;;;;;;;13.52;5.88;;;6.20;99.90;;;;;;5114790;28;20426;-65
2021/04/11 03:47:32;;;;;;;9.95;6.03;;;6.30;99.90;;;;;;5114682;28;20180;-67
2021/04/11 03:50:05;;;;;;;9.95;5.38;;;6.20;99.90;;;;;;5114701;28;20710;-66
2021/04/11 03:52:37;;;;;;;7.85;5.72;;;6.30;99.90;;;;;;5096439;28;20316;-66
2021/04/11 03:55:07;;;;;;;9.02;5.70;;;6.30;99.90;;;;;;5114986;28;20176;-67
2021/04/11 03:57:52;;;;;;;7.88;6.25;;;6.50;99.90;;;;;;5114517;28;20168;-66
2021/04/11 04:00:25;;;;;;;14.50;5.35;;;6.40;99.90;;;;;;5114784;28;20203;-65
2021/04/11 04:02:53;;;;;;;10.43;6.40;;;6.40;99.90;;;;;;5114334;28;20196;-66
2021/04/11 04:05:25;;;;;;;7.35;5.68;;;6.40;99.90;;;;;;5114739;28;20259;-67
2021/04/11 04:07:54;;;;;;;6.22;4.45;;;6.40;99.90;;;;;;5114352;28;20196;-65
2021/04/11 04:10:39;;;;;;;8.73;5.80;;;6.10;99.90;;;;;;5114668;28;20537;-66
2021/04/11 04:13:36;;;;;;;6.68;5.18;;;6.10;99.90;;;;;;5114379;28;20572;-66
2021/04/11 04:16:09;;;;;;;5.40;4.43;;;6.10;99.90;;;;;;5101748;28;20184;-66
2021/04/11 04:19:06;;;;;;;9.48;6.13;;;6.20;99.90;;;;;;5114513;28;20196;-66
2021/04/11 04:21:41;;;;;;;6.00;5.45;;;6.20;99.90;;;;;;5114186;28;20211;-67
2021/04/11 04:24:06;;;;;;;6.43;4.72;;;6.20;99.90;;;;;;5114242;28;20266;-66
2021/04/11 04:26:41;;;;;;;8.27;6.20;;;6.30;99.90;;;;;;5095914;28;20264;-68
2021/04/11 04:29:26;;;;;;;11.80;5.65;;;6.30;99.90;;;;;;5114068;28;20179;-66
2021/04/11 04:32:28;;;;;;;8.88;6.55;;;6.30;99.90;;;;;;5114150;28;20159;-68
2021/04/11 04:35:18;;;;;;;11.43;6.50;;;6.20;99.90;;;;;;5095953;28;20178;-66
2021/04/11 04:37:44;;;;;;;8.13;5.13;;;6.30;99.90;;;;;;5113940;28;20559;-67
2021/04/11 04:40:32;;;;;;;9.90;6.10;;;6.30;99.90;;;;;;5095828;28;20203;-66
2021/04/11 04:43:03;;;;;;;7.93;6.18;;;6.40;99.90;;;;;;5114043;28;20196;-69
2021/04/11 04:45:45;;;;;;;10.55;6.35;;;6.50;99.90;;;;;;5114225;28;20168;-66
2021/04/11 04:48:18;;;;;;;10.65;5.80;;;6.50;99.90;;;;;;5114020;28;20188;-66
2021/04/11 04:50:46;;;;;;;10.82;6.00;;;6.70;99.90;;;;;;5113983;28;20238;-66
2021/04/11 04:53:26;;;;;;;4.47;4.03;;;6.50;99.90;;;;;;5095756;28;20291;-66
2021/04/11 04:55:57;;;;;;;16.48;7.50;;;6.70;99.90;;;;;;5114342;28;20183;-66
2021/04/11 04:58:29;;;;;;;8.35;6.55;;;6.80;99.90;;;;;;5095514;28;20196;-67
2021/04/11 05:00:59;;;;;;;7.90;5.82;;;6.90;99.90;;;;;;5114122;28;20219;-67
2021/04/11 05:03:31;;;;;;;10.88;5.25;;;7.00;99.90;;;;;;5113794;28;20622;-66
2021/04/11 05:06:16;;;;;;;9.25;7.22;;;7.10;99.90;;;;;;5114312;28;20187;-66
2021/04/11 05:09:00;;;;;;;5.25;4.50;;;7.20;99.90;;;;;;5113726;28;20199;-66
2021/04/11 05:11:36;;;;;;;11.88;4.43;;;7.20;99.90;;;;;;5113848;28;20176;-67
2021/04/11 05:14:12;;;;;;;7.43;4.97;;;7.30;99.90;;;;;;5115498;28;20188;-66
2021/04/11 05:16:43;;;;;;;10.95;6.88;;;7.30;99.90;;;;;;5117693;28;20660;-67
2021/04/11 05:19:34;;;;;;;6.68;4.65;;;7.40;99.90;;;;;;5117586;28;20190;-66
2021/04/11 05:22:25;;;;;;;10.93;6.60;;;7.40;99.90;;;;;;5110022;28;20192;-66
2021/04/11 05:25:07;;;;;;;7.30;5.18;;;7.50;99.90;;;;;;5080202;28;20191;-66
2021/04/11 05:27:47;;;;;;;12.85;6.95;;;7.80;99.90;;;;;;5117315;28;20535;-66
2021/04/11 05:30:24;;;;;;;7.38;5.35;;;7.90;99.90;;;;;;5117773;28;20175;-66
2021/04/11 05:32:51;;;;;;;8.95;4.20;;;7.90;99.90;;;;;;5117341;28;20202;-66
2021/04/11 05:35:18;;;;;;;8.00;5.28;;;7.90;99.90;;;;;;5117634;28;20540;-67
2021/04/11 05:38:02;;;;;;;7.55;5.75;;;7.90;99.90;;;;;;5117094;28;20195;-67
2021/04/11 05:40:33;;;;;;;8.57;6.82;;;8.00;99.90;;;;;;5099023;28;20215;-66
2021/04/11 05:43:06;;;;;;;12.18;7.38;;;8.20;99.90;;;;;;5116993;28;20200;-66
2021/04/11 05:45:54;;;;;;;10.95;7.45;;;8.30;99.90;;;;;;5117524;28;20640;-66
2021/04/11 05:48:48;;;;;;;7.15;6.25;;;8.30;99.90;;;;;;5117029;28;20383;-66
2021/04/11 05:51:38;;;;;;;8.82;6.45;;;8.50;99.90;;;;;;5117122;28;20259;-67
2021/04/11 05:54:31;;;;;;;12.30;6.57;;;8.60;99.90;;;;;;5116880;28;20198;-65
2021/04/11 05:57:03;;;;;;;8.10;6.53;;;8.80;99.90;;;;;;5116813;28;20178;-66
2021/04/11 05:59:52;;;;;;;11.00;7.15;;;9.00;99.90;;;;;;5098539;28;20525;-66
2021/04/11 06:02:46;;;;;;;9.35;5.63;;;9.10;99.90;;;;;;5098494;28;20237;-67
2021/04/11 06:05:29;;;;;;;9.05;5.00;;;9.30;99.90;;;;;;5114584;28;20222;-66
2021/04/11 06:08:20;;;;;;;8.50;6.22;;;9.50;99.90;;;;;;5116577;28;20268;-66
2021/04/11 06:11:01;;;;;;;8.65;5.70;;;9.60;99.90;;;;;;5098594;28;20270;-67
2021/04/11 06:13:39;;;;;;;13.45;9.32;;;9.80;99.90;;;;;;5116407;28;20271;-67
2021/04/11 06:16:16;;;;;;;11.60;9.25;;;10.00;99.90;;;;;;5116381;28;20169;-66
2021/04/11 06:18:50;;;;;;;9.88;8.57;;;10.10;99.90;;;;;;5116353;28;20199;-67
2021/04/11 06:21:38;;;;;;;10.85;7.18;;;10.10;99.90;;;;;;5098347;28;20219;-67
2021/04/11 06:24:25;;;;;;;10.80;7.88;;;10.20;99.90;;;;;;5068475;28;20676;-66
2021/04/11 06:27:05;;;;;;;12.68;7.55;;;10.30;99.90;;;;;;5115752;28;20187;-66
2021/04/11 06:29:39;;;;;;;10.27;6.53;;;10.40;99.90;;;;;;5116452;28;20199;-66
2021/04/11 06:32:12;;;;;;;11.65;7.00;;;10.60;99.90;;;;;;5097846;28;20229;-66
2021/04/11 06:34:45;;;;;;;8.25;6.30;;;10.70;99.90;;;;;;5116165;28;20191;-66
2021/04/11 06:37:15;;;;;;;12.80;8.73;;;11.00;99.90;;;;;;5116125;28;20608;-67
2021/04/11 06:39:44;;;;;;;8.55;6.07;;;11.30;99.90;;;;;;5116096;28;20200;-66
2021/04/11 06:42:13;;;;;;;10.52;7.20;;;11.40;99.90;;;;;;5116036;28;20172;-66
2021/04/11 06:45:00;;;;;;;9.75;7.07;;;11.40;99.90;;;;;;5115997;28;20661;-67
2021/04/11 06:47:53;;;;;;;11.02;6.70;;;11.60;99.90;;;;;;5115874;28;20179;-66
2021/04/11 06:50:52;;;;;;;9.82;6.65;;;11.80;99.90;;;;;;5115737;28;20220;-66
2021/04/11 06:53:54;;;;;;;8.45;6.60;;;12.00;99.90;;;;;;5115810;28;20200;-67
2021/04/11 06:56:58;;;;;;;12.98;7.88;;;12.10;99.90;;;;;;5097434;28;20644;-68
2021/04/11 06:59:39;;;;;;;13.15;6.97;;;12.20;99.90;;;;;;5036172;28;20198;-66
2021/04/11 07:02:30;;;;;;;10.90;6.60;;;12.50;99.90;;;;;;5109309;28;20721;-66
2021/04/11 07:05:32;;;;;;;10.23;6.60;;;12.60;99.90;;;;;;5087761;28;20225;-68
2021/04/11 07:08:18;;;;;;;13.57;7.10;;;12.70;99.90;;;;;;5115548;28;20195;-68
2021/04/11 07:10:50;;;;;;;9.13;6.50;;;12.70;99.90;;;;;;5115412;28;20436;-67
2021/04/11 07:13:49;;;;;;;10.23;6.77;;;12.70;99.90;;;;;;5097004;28;20440;-67
2021/04/11 07:17:12;;;;;;;8.33;6.43;;;13.00;99.90;;;;;;5115849;28;20464;-67
2021/04/11 07:19:54;;;;;;;8.73;7.67;;;13.30;99.90;;;;;;5052423;28;20559;-67
2021/04/11 07:22:39;;;;;;;9.87;6.40;;;13.40;99.90;;;;;;5052653;28;21031;-68
2021/04/11 07:25:22;;;;;;;11.80;6.40;;;13.80;99.90;;;;;;5105134;28;20431;-67
2021/04/11 07:28:08;;;;;;;13.30;5.93;;;13.80;98.90;;;;;;5096763;28;20467;-66
2021/04/11 07:30:58;;;;;;;8.53;5.93;;;13.50;98.00;;;;;;5115447;28;20929;-66
2021/04/11 07:33:52;;;;;;;7.47;6.73;;;13.60;98.20;;;;;;5096642;28;20986;-68
2021/04/11 07:36:53;;;;;;;7.20;5.50;;;13.80;97.40;;;;;;5114567;28;20424;-67
2021/04/11 07:39:31;;;;;;;9.60;6.47;;;14.00;96.30;;;;;;5114829;28;20443;-66
2021/04/11 07:42:23;;;;;;;7.27;5.23;;;14.00;96.20;;;;;;5114889;28;20415;-68
2021/04/11 07:45:06;;;;;;;11.90;5.10;;;14.10;96.80;;;;;;5114938;28;20514;-67
2021/04/11 07:47:58;;;;;;;9.70;6.30;;;14.30;95.20;;;;;;5096541;28;20420;-66
2021/04/11 07:50:27;;;;;;;10.40;6.13;;;14.30;93.70;;;;;;5114747;28;20476;-67
2021/04/11 07:53:25;;;;;;;7.90;4.23;;;14.30;93.10;;;;;;5114585;28;20428;-66
2021/04/11 07:56:06;;;;;;;5.13;3.60;;;14.10;94.10;;;;;;5114717;28;20434;-66
2021/04/11 07:58:37;;;;;;;9.13;6.00;;;14.20;94.50;;;;;;5096288;28;20527;-68
2021/04/11 08:01:24;;;;;;;5.93;4.70;;;14.50;94.10;;;;;;5115058;28;20782;-67
2021/04/11 08:04:12;;;;;;;5.47;4.00;;;14.50;93.60;;;;;;5096106;28;20432;-67
2021/04/11 08:07:04;;;;;;;6.07;4.73;;;14.70;94.00;;;;;;5114503;28;20408;-67
2021/04/11 08:09:57;;;;;;;7.57;4.47;;;14.80;93.20;;;;;;5096029;28;20467;-68
2021/04/11 08:12:37;;;;;;;8.63;4.40;;;15.00;93.70;;;;;;5114251;28;20404;-67
2021/04/11 08:15:35;;;;;;;7.70;3.80;;;15.10;93.10;;;;;;5114428;28;20423;-67
2021/04/11 08:18:19;;;;;;;9.33;5.50;;;15.30;92.50;;;;;;5096091;28;20467;-67
2021/04/11 08:21:28;;;;;;;5.77;5.03;;;15.50;91.40;;;;;;5096008;28;20468;-68
2021/04/11 08:24:13;;;;;;;10.73;5.83;;;15.80;89.10;;;;;;5114215;28;20801;-67
2021/04/11 08:26:59;;;;;;;10.70;4.70;;;15.80;87.80;;;;;;5114240;28;20412;-68
2021/04/11 08:30:01;;;;;;;6.00;4.00;;;15.50;87.70;;;;;;5114031;28;20442;-67
2021/04/11 08:32:52;;;;;;;4.27;3.37;;;15.80;87.50;;;;;;5114017;28;20404;-66
2021/04/11 08:35:21;;;;;;;6.13;5.10;;;15.80;87.80;;;;;;5114370;28;20464;-68
2021/04/11 08:38:05;;;;;;;7.87;5.20;;;16.10;88.90;;;;;;5114033;28;20431;-69
2021/04/11 08:40:52;;;;;;;6.27;4.00;;;16.20;87.70;;;;;;5114317;28;20463;-67
2021/04/11 08:43:41;;;;;;;6.60;4.97;;;16.50;86.30;;;;;;5113948;28;20432;-67
2021/04/11 08:46:46;;;;;;;6.50;4.77;;;16.50;86.30;;;;;;5113800;28;20440;-66
2021/04/11 08:49:22;;;;;;;7.80;5.07;;;17.20;83.10;;;;;;5116301;28;20933;-67
2021/04/11 08:52:16;;;;;;;6.33;4.40;;;17.90;81.80;;;;;;5118204;28;20459;-67
2021/04/11 08:54:55;;;;;;;11.93;4.07;;;18.10;78.30;;;;;;5095381;28;20775;-67
2021/04/11 08:57:51;;;;;;;7.20;5.00;;;18.20;79.70;;;;;;5118198;28;20385;-66
2021/04/11 09:00:41;;;;;;;4.40;3.43;;;18.20;79.30;;;;;;5118299;28;20470;-67
2021/04/11 09:03:35;;;;;;;7.33;4.53;;;17.90;74.70;;;;;;5117908;28;20428;-68
2021/04/11 09:06:11;;;;;;;5.00;4.40;;;17.80;74.80;;;;;;5118556;28;20422;-67
2021/04/11 09:08:58;;;;;;;7.17;5.13;;;17.80;75.10;;;;;;5099536;28;20470;-67
2021/04/11 09:11:29;;;;;;;7.00;4.80;;;17.60;74.10;;;;;;5117770;28;20415;-67
2021/04/11 09:13:57;;;;;;;5.57;4.20;;;17.70;73.70;;;;;;5099243;28;20960;-68
2021/04/11 09:16:35;;;;;;;10.73;4.93;;;17.50;74.70;;;;;;5117708;28;20436;-67
2021/04/11 09:19:20;;;;;;;9.03;4.77;;;17.50;74.00;;;;;;5117445;28;20514;-67
2021/04/11 09:22:02;;;;;;;6.87;4.50;;;17.60;74.60;;;;;;5099184;28;20473;-66
2021/04/11 09:24:51;;;;;;;6.60;4.40;;;17.70;74.50;;;;;;5099256;28;20435;-67
2021/04/11 09:27:41;;;;;;;5.87;4.50;;;17.60;73.00;;;;;;5117535;28;20410;-67
2021/04/11 09:30:43;;;;;;;6.10;4.40;;;17.50;73.50;;;;;;5099163;28;20436;-68
2021/04/11 09:33:28;;;;;;;7.97;4.87;;;17.40;73.00;;;;;;5117390;28;20468;-66
2021/04/11 09:36:12;;;;;;;5.40;4.17;;;17.40;73.90;;;;;;5117761;28;20420;-67
2021/04/11 09:39:05;;;;;;;8.23;3.80;;;17.60;74.00;;;;;;5117197;28;20456;-67
2021/04/11 09:41:37;;;;;;;6.03;3.90;;;17.60;73.60;;;;;;5098881;28;20469;-67
2021/04/11 09:44:17;;;;;;;6.50;3.93;;;17.50;72.40;;;;;;5117100;28;20806;-67
2021/04/11 09:46:48;;;;;;;5.70;5.00;;;17.50;72.60;;;;;;5117119;28;20396;-68
2021/04/11 09:49:51;;;;;;;4.87;3.63;;;17.40;73.10;;;;;;5116975;28;20427;-68
2021/04/11 09:52:47;;;;;;;5.27;3.53;;;17.30;73.00;;;;;;5076519;28;20410;-67
2021/04/11 09:55:19;;;;;;;3.90;3.50;;;17.30;73.80;;;;;;5092100;28;20470;-67
2021/04/11 09:57:59;;;;;;;7.40;4.73;;;17.50;73.40;;;;;;5076142;28;20438;-67
2021/04/11 10:01:00;;;;;;;5.23;3.87;;;17.20;73.30;;;;;;5091734;28;20473;-68
2021/04/11 10:03:34;;;;;;;5.97;3.60;;;17.40;73.90;;;;;;5043636;28;20511;-67
2021/04/11 10:06:22;;;;;;;7.20;4.03;;;17.50;73.90;;;;;;5091866;28;20437;-66
2021/04/11 10:09:15;;;;;;;4.90;3.87;;;17.70;72.90;;;;;;5074712;28;20491;-67
2021/04/11 10:11:56;;;;;;;7.10;4.03;;;17.90;73.60;;;;;;5076018;28;20400;-68
2021/04/11 10:14:31;;;;;;;5.17;4.40;;;17.90;74.00;;;;;;5076055;28;20429;-66
2021/04/11 10:17:23;;;;;;;10.03;5.30;;;18.00;74.50;;;;;;5075987;28;20830;-67
2021/04/11 10:20:04;;;;;;;4.07;3.10;;;18.10;73.60;;;;;;5076043;28;20442;-67
2021/04/11 10:22:44;;;;;;;3.83;3.53;;;18.10;74.60;;;;;;5075859;28;20904;-66
2021/04/11 10:25:35;;;;;;;5.23;4.30;;;18.10;74.10;;;;;;5075723;28;20422;-67
2021/04/11 10:28:23;;;;;;;10.67;4.23;;;18.20;74.50;;;;;;5075745;28;20852;-67
2021/04/11 10:31:11;;;;;;;5.07;3.60;;;18.50;74.00;;;;;;5076048;28;20423;-67
2021/04/11 10:33:49;;;;;;;5.47;4.00;;;19.00;73.60;;;;;;5075586;28;20448;-67
2021/04/11 10:36:23;;;;;;;6.10;3.90;;;19.20;72.20;;;;;;5091341;28;20438;-67
2021/04/11 10:39:17;;;;;;;5.77;4.07;;;19.50;70.60;;;;;;5074179;28;20962;-67
2021/04/11 10:41:59;;;;;;;5.27;3.03;;;19.70;70.10;;;;;;5040143;28;20823;-66
2021/04/11 10:44:46;;;;;;;4.60;3.60;;;20.10;69.90;;;;;;5091038;28;20453;-67
2021/04/11 10:47:47;;;;;;;5.10;2.87;;;19.80;67.90;;;;;;5090848;28;20441;-69
2021/04/11 10:50:24;;;;;;;4.30;3.00;;;19.80;65.00;;;;;;5088737;28;20469;-67
2021/04/11 10:53:28;;;;;;;3.80;2.40;;;19.90;64.20;;;;;;5115805;28;20459;-67
2021/04/11 10:56:15;;;;;;;8.10;3.87;;;19.70;64.30;;;;;;5097654;28;20423;-68
2021/04/11 10:59:10;;;;;;;3.27;2.97;;;20.10;63.10;;;;;;5115644;28;20436;-67
2021/04/11 11:01:54;;;;;;;4.60;2.73;;;20.30;63.50;;;;;;5115582;28;20467;-67
2021/04/11 11:04:22;;;;;;;7.13;5.43;;;20.60;62.60;;;;;;5123878;27;20974;-69
2021/04/11 11:07:01;;;;;;;6.13;4.87;;;20.10;64.20;;;;;;5123205;27;20557;-69
2021/04/11 11:09:45;;;;;;;4.20;3.57;;;20.00;64.20;;;;;;5107747;27;20454;-67
2021/04/11 11:12:44;;;;;;;3.73;2.63;;;20.30;63.60;;;;;;5121227;27;20424;-67
2021/04/11 11:15:42;;;;;;;8.83;3.10;;;20.40;63.80;;;;;;5122437;27;20420;-67
2021/04/11 11:18:55;;;;;;;5.50;4.23;;;20.50;63.60;;;;;;5040504;28;20457;-67
2021/04/11 11:21:45;;;;;;;3.10;2.80;;;20.30;62.80;;;;;;5107572;28;20529;-68
2021/04/11 11:24:19;;;;;;;8.03;4.57;;;19.50;63.80;;;;;;5113008;28;20435;-67
2021/04/11 11:26:54;;;;;;;7.97;5.00;;;19.70;64.40;;;;;;5112977;28;20897;-67
2021/04/11 11:29:48;;;;;;;4.57;3.83;;;20.10;65.60;;;;;;5094590;28;20829;-69
2021/04/11 11:32:22;;;;;;;4.83;3.80;;;20.10;66.10;;;;;;5114119;28;20396;-68
2021/04/11 11:35:01;;;;;;;5.50;4.27;;;20.20;65.40;;;;;;5115083;28;20419;-67
2021/04/11 11:37:48;;;;;;;4.33;3.60;;;20.30;64.10;;;;;;5114946;28;20391;-67
2021/04/11 11:40:19;;;;;;;7.47;4.37;;;20.30;63.80;;;;;;5096657;28;20476;-67
2021/04/11 11:43:03;;;;;;;5.80;3.77;;;20.20;63.30;;;;;;5114760;28;20952;-69
2021/04/11 11:46:03;;;;;;;4.20;3.83;;;20.10;63.70;;;;;;5096655;28;20757;-67
2021/04/11 11:48:46;;;;;;;5.13;4.17;;;20.50;64.00;;;;;;5114745;28;20475;-67
2021/04/11 11:51:36;;;;;;;5.07;4.13;;;20.50;62.90;;;;;;5114792;28;20464;-67
2021/04/11 11:54:23;;;;;;;5.50;4.10;;;20.30;64.30;;;;;;5096372;28;20992;-67
2021/04/11 11:56:51;;;;;;;5.13;3.93;;;20.20;63.80;;;;;;5114580;28;20410;-68
2021/04/11 11:59:43;;;;;;;4.23;3.60;;;20.40;63.50;;;;;;5096118;28;20964;-69
2021/04/11 12:02:17;;;;;;;10.73;5.40;;;20.20;64.50;;;;;;5114553;28;20405;-69
2021/04/11 12:05:09;;;;;;;4.53;3.97;;;20.20;64.70;;;;;;5096157;28;20444;-67
2021/04/11 12:07:47;;;;;;;7.10;5.00;;;20.30;64.80;;;;;;5114443;28;20397;-68
2021/04/11 12:10:16;;;;;;;9.00;5.33;;;20.50;64.90;;;;;;5114783;28;20419;-68
2021/04/11 12:13:00;;;;;;;7.23;4.87;;;20.20;65.50;;;;;;5114273;28;20419;-68
2021/04/11 12:15:52;;;;;;;6.60;4.70;;;20.30;65.30;;;;;;5114715;28;20431;-68
2021/04/11 12:18:40;;;;;;;6.03;4.17;;;20.00;66.50;;;;;;5114377;28;20481;-68
2021/04/11 12:21:25;;;;;;;4.30;3.70;;;20.10;64.50;;;;;;5114167;28;20515;-67
2021/04/11 12:24:15;;;;;;;7.73;4.17;;;19.90;64.20;;;;;;5114157;28;20440;-69
2021/04/11 12:26:55;;;;;;;7.30;5.60;;;19.70;64.60;;;;;;5095979;28;20432;-69
2021/04/11 12:29:24;;;;;;;8.70;5.87;;;19.80;65.30;;;;;;5095850;28;20767;-68
2021/04/11 12:31:59;;;;;;;7.67;5.40;;;19.60;64.40;;;;;;5095634;28;20418;-68
2021/04/11 12:34:59;;;;;;;6.03;4.60;;;19.50;64.80;;;;;;5114159;28;20427;-68
2021/04/11 12:37:30;;;;;;;7.50;5.33;;;19.60;64.90;;;;;;5058838;28;20460;-67
2021/04/11 12:40:19;;;;;;;6.47;4.67;;;19.90;64.70;;;;;;5095982;28;20868;-69
2021/04/11 12:42:54;;;;;;;9.77;5.67;;;19.90;64.80;;;;;;5095656;28;20983;-69
2021/04/11 12:45:30;;;;;;;7.10;4.80;;;19.80;65.10;;;;;;5114000;28;20423;-68
2021/04/11 12:48:05;;;;;;;10.80;6.10;;;19.70;65.70;;;;;;5095705;28;20948;-69
2021/04/11 12:50:44;;;;;;;6.30;5.33;;;19.50;64.70;;;;;;5113947;28;20792;-68
2021/04/11 12:53:20;;;;;;;10.03;5.40;;;19.40;64.30;;;;;;5113964;28;20424;-69
2021/04/11 12:55:55;;;;;;;7.47;5.27;;;19.40;63.90;;;;;;5095856;28;20801;-67
2021/04/11 12:58:40;;;;;;;10.67;6.90;;;19.30;63.50;;;;;;5113836;28;20495;-68
2021/04/11 13:01:11;;;;;;;7.83;6.57;;;19.20;63.20;;;;;;5114381;28;20470;-69
2021/04/11 13:03:45;;;;;;;7.53;5.10;;;19.30;63.50;;;;;;5113738;28;20431;-68
2021/04/11 13:06:38;;;;;;;7.67;5.77;;;19.20;63.00;;;;;;5114387;28;20412;-70
2021/04/11 13:09:14;;;;;;;6.27;5.57;;;19.30;63.50;;;;;;5113691;28;20473;-68
2021/04/11 13:11:50;;;;;;;6.63;4.33;;;19.40;63.10;;;;;;5113728;28;20405;-67
2021/04/11 13:14:29;;;;;;;7.03;4.40;;;19.00;62.70;;;;;;5095480;28;20451;-67
2021/04/11 13:17:07;;;;;;;4.43;3.60;;;19.00;62.60;;;;;;5113697;28;20480;-69
2021/04/11 13:19:49;;;;;;;3.60;2.40;;;19.00;61.90;;;;;;5095413;28;20443;-70
2021/04/11 13:22:30;;;;;;;5.20;3.53;;;19.00;62.10;;;;;;5113724;28;20484;-67
2021/04/11 13:25:08;;;;;;;3.00;2.60;;;18.90;62.80;;;;;;5113982;28;20431;-68
2021/04/11 13:27:54;;;;;;;4.20;2.87;;;18.90;63.50;;;;;;5095326;28;20412;-67
2021/04/11 13:30:31;;;;;;;5.27;3.70;;;18.60;65.50;;;;;;5113953;28;20423;-69
2021/04/11 13:33:01;;;;;;;6.37;3.90;;;18.40;64.80;;;;;;5113621;28;20434;-67
2021/04/11 13:35:54;;;;;;;3.33;3.03;;;18.20;64.80;;;;;;5097875;28;20427;-68
2021/04/11 13:38:31;;;;;;;3.37;2.63;;;18.40;64.60;;;;;;5098878;28;20807;-68
2021/04/11 13:41:38;;;;;;;6.30;4.50;;;18.50;64.10;;;;;;5117572;28;20465;-68
2021/04/11 13:44:43;;;;;;;3.63;2.20;;;18.40;63.60;;;;;;5117232;28;20826;-68
2021/04/11 13:47:49;;;;;;;2.60;2.20;;;18.50;62.60;;;;;;5117368;28;20413;-67
2021/04/11 13:50:33;;;;;;;3.80;3.00;;;18.30;61.80;;;;;;5116987;28;20465;-69